createdAt,value
2019-04-07T00:01:38.409Z,71.90
2019-04-07T00:04:13.504Z,72.70
2019-04-07T00:06:46.355Z,73.20
2019-04-07T00:09:20.408Z,73.00
2019-04-07T00:12:13.755Z,72.70
2019-04-07T00:14:46.895Z,73.20
2019-04-07T00:17:27.470Z,73.60
2019-04-07T00:20:00.634Z,74.00
2019-04-07T00:22:34.532Z,74.10
2019-04-07T00:25:28.693Z,75.30
2019-04-07T00:28:12.845Z,74.50
2019-04-07T00:30:42.595Z,74.30
2019-04-07T00:33:15.475Z,74.50
2019-04-07T00:35:58.150Z,75.10
2019-04-07T00:38:30.503Z,75.80
2019-04-07T00:41:03.644Z,76.30
2019-04-07T00:43:36.844Z,77.00
2019-04-07T00:46:09.948Z,77.40
2019-04-07T00:48:42.739Z,77.00
2019-04-07T00:51:15.569Z,76.90
2019-04-07T00:53:48.454Z,77.50
2019-04-07T00:56:21.433Z,77.90
2019-04-07T00:58:54.549Z,78.40
2019-04-07T01:01:32.084Z,79.00
2019-04-07T01:04:01.286Z,79.70
2019-04-07T01:06:30.072Z,79.60
2019-04-07T01:08:59.167Z,79.00
2019-04-07T01:11:28.060Z,79.60
2019-04-07T01:13:56.990Z,79.20
2019-04-07T01:16:26.258Z,78.30
2019-04-07T01:18:55.114Z,78.80
2019-04-07T01:21:23.907Z,79.00
2019-04-07T01:23:53.217Z,79.70
2019-04-07T01:26:22.728Z,80.60
2019-04-07T01:28:53.685Z,79.40
2019-04-07T01:31:22.563Z,78.70
2019-04-07T01:33:52.120Z,78.20
2019-04-07T01:36:21.604Z,77.50
2019-04-07T01:38:51.110Z,77.00
2019-04-07T01:41:24.171Z,76.90
2019-04-07T01:44:06.748Z,77.00
2019-04-07T01:46:39.352Z,76.30
2019-04-07T01:49:28.001Z,75.40
2019-04-07T01:51:59.253Z,75.20
2019-04-07T01:54:29.681Z,74.90
2019-04-07T01:57:18.745Z,74.80
2019-04-07T02:00:01.946Z,75.10
2019-04-07T02:02:49.403Z,76.80
2019-04-07T02:05:37.643Z,76.50
2019-04-07T02:08:24.784Z,75.50
2019-04-07T02:10:55.932Z,74.80
2019-04-07T02:13:36.166Z,75.50
2019-04-07T02:16:06.790Z,75.60
2019-04-07T02:18:44.230Z,75.40
2019-04-07T02:21:20.701Z,75.00
2019-04-07T02:23:54.826Z,74.30
2019-04-07T02:26:50.486Z,74.90
2019-04-07T02:29:21.216Z,75.10
2019-04-07T02:31:58.559Z,75.00
2019-04-07T02:34:45.737Z,75.40
2019-04-07T02:37:31.618Z,74.90
2019-04-07T02:40:03.859Z,75.00
2019-04-07T02:42:48.251Z,74.20
2019-04-07T02:45:19.688Z,74.60
2019-04-07T02:48:01.145Z,74.10
2019-04-07T02:50:48.187Z,74.90
2019-04-07T02:53:21.470Z,74.50
2019-04-07T02:56:02.032Z,74.80
2019-04-07T02:58:35.830Z,75.00
2019-04-07T03:01:22.973Z,74.70
2019-04-07T03:04:09.571Z,74.10
2019-04-07T03:06:51.038Z,73.70
2019-04-07T03:09:18.742Z,72.70
2019-04-07T03:11:49.456Z,71.80
2019-04-07T03:14:19.985Z,72.10
2019-04-07T03:17:02.877Z,71.10
2019-04-07T03:19:33.374Z,71.90
2019-04-07T03:22:16.284Z,72.70
2019-04-07T03:24:46.905Z,71.80
2019-04-07T03:27:32.669Z,71.40
2019-04-07T03:30:03.927Z,71.20
2019-04-07T03:32:49.303Z,71.70
2019-04-07T03:35:30.520Z,72.90
2019-04-07T03:38:02.843Z,73.00
2019-04-07T03:40:36.711Z,73.00
2019-04-07T03:43:10.302Z,72.60
2019-04-07T03:45:49.928Z,73.50
2019-04-07T03:48:21.164Z,73.20
2019-04-07T03:50:57.679Z,72.00
2019-04-07T03:53:37.150Z,72.30
2019-04-07T03:56:08.117Z,71.60
2019-04-07T03:58:50.906Z,71.60
2019-04-07T04:01:24.184Z,71.60
2019-04-07T04:04:10.904Z,72.30
2019-04-07T04:06:57.928Z,72.40
2019-04-07T04:09:39.737Z,71.90
2019-04-07T04:12:13.397Z,73.30
2019-04-07T04:14:44.131Z,75.50
2019-04-07T04:17:13.068Z,76.40
2019-04-07T04:19:42.583Z,77.30
2019-04-07T04:22:12.864Z,78.80
2019-04-07T04:24:42.191Z,79.10
2019-04-07T04:27:11.065Z,78.60
2019-04-07T04:29:39.950Z,78.40
2019-04-07T04:32:09.205Z,80.60
2019-04-07T04:34:38.902Z,82.20
2019-04-07T04:37:08.177Z,82.80
2019-04-07T04:39:38.774Z,81.80
2019-04-07T04:42:08.477Z,81.50
2019-04-07T04:44:37.988Z,80.60
2019-04-07T04:47:06.869Z,80.10
2019-04-07T04:49:35.630Z,80.00
2019-04-07T04:52:05.142Z,80.20
2019-04-07T04:54:34.063Z,80.90
2019-04-07T04:57:06.412Z,81.30
2019-04-07T04:59:33.347Z,80.20
2019-04-07T05:02:02.142Z,79.80
2019-04-07T05:04:31.709Z,79.80
2019-04-07T05:07:01.439Z,79.30
2019-04-07T05:09:42.149Z,79.50
2019-04-07T05:12:04.071Z,79.40
2019-04-07T05:14:32.143Z,79.10
2019-04-07T05:17:00.977Z,80.20
2019-04-07T05:19:29.738Z,81.40
2019-04-07T05:21:59.145Z,82.20
2019-04-07T05:24:28.624Z,83.10
2019-04-07T05:26:57.646Z,83.90
2019-04-07T05:29:26.439Z,84.30
2019-04-07T05:31:55.724Z,84.70
2019-04-07T05:34:24.596Z,85.10
2019-04-07T05:36:53.417Z,84.50
2019-04-07T05:39:22.939Z,84.40
2019-04-07T05:41:52.522Z,84.50
2019-04-07T05:44:21.752Z,84.80
2019-04-07T05:46:51.581Z,84.40
2019-04-07T05:49:23.248Z,83.80
2019-04-07T05:51:50.949Z,83.40
2019-04-07T05:54:20.766Z,83.00
2019-04-07T05:56:50.254Z,82.30
2019-04-07T05:59:19.906Z,82.40
2019-04-07T06:01:51.577Z,83.90
2019-04-07T06:04:19.487Z,84.80
2019-04-07T06:06:51.558Z,84.50
2019-04-07T06:09:20.570Z,83.90
2019-04-07T06:11:49.769Z,83.40
2019-04-07T06:14:19.280Z,83.30
2019-04-07T06:16:52.456Z,82.40
2019-04-07T06:19:19.193Z,83.20
2019-04-07T06:21:48.941Z,83.40
2019-04-07T06:24:21.977Z,83.50
2019-04-07T06:26:50.326Z,83.70
2019-04-07T06:29:19.881Z,83.80
2019-04-07T06:31:49.504Z,83.10
2019-04-07T06:34:18.614Z,82.60
2019-04-07T06:36:51.652Z,81.50
2019-04-07T06:39:19.218Z,81.10
2019-04-07T06:41:48.880Z,80.50
2019-04-07T06:44:20.910Z,80.40
2019-04-07T06:46:49.887Z,80.40
2019-04-07T06:49:26.865Z,80.50
2019-04-07T06:52:04.814Z,80.50
2019-04-07T06:54:44.886Z,80.90
2019-04-07T06:57:15.452Z,80.90
2019-04-07T06:59:48.996Z,80.20
2019-04-07T07:02:23.989Z,80.40
2019-04-07T07:05:13.245Z,81.60
2019-04-07T07:07:43.548Z,81.00
2019-04-07T07:10:25.264Z,79.00
2019-04-07T07:12:52.627Z,78.40
2019-04-07T07:15:36.460Z,78.50
2019-04-07T07:18:24.094Z,77.40
2019-04-07T07:21:04.029Z,77.90
2019-04-07T07:23:36.404Z,78.00
2019-04-07T07:26:06.056Z,77.80
2019-04-07T07:28:36.039Z,77.30
2019-04-07T07:31:05.758Z,76.70
2019-04-07T07:33:34.517Z,76.80
2019-04-07T07:36:03.459Z,75.60
2019-04-07T07:38:33.523Z,75.80
2019-04-07T07:41:04.489Z,74.70
2019-04-07T07:43:33.774Z,73.50
2019-04-07T07:46:03.177Z,72.50
2019-04-07T07:48:35.714Z,71.30
2019-04-07T07:51:04.083Z,71.70
2019-04-07T07:53:34.163Z,70.60
2019-04-07T07:56:03.190Z,69.70
2019-04-07T07:58:33.652Z,68.00
2019-04-07T08:01:03.206Z,67.50
2019-04-07T08:03:37.552Z,66.60
2019-04-07T08:06:08.247Z,65.70
2019-04-07T08:08:37.276Z,64.30
2019-04-07T08:11:06.774Z,64.10
2019-04-07T08:13:42.251Z,63.60
2019-04-07T08:16:06.367Z,62.30
2019-04-07T08:18:37.905Z,62.10
2019-04-07T08:21:06.659Z,61.50
2019-04-07T08:23:36.260Z,61.60
2019-04-07T08:26:06.000Z,60.00
2019-04-07T08:28:35.919Z,60.20
2019-04-07T08:31:05.592Z,59.30
2019-04-07T08:33:35.450Z,58.40
2019-04-07T08:36:04.565Z,57.70
2019-04-07T08:38:35.404Z,57.20
2019-04-07T08:41:07.951Z,55.90
2019-04-07T08:43:35.163Z,56.20
2019-04-07T08:46:05.084Z,56.20
2019-04-07T08:48:34.643Z,56.90
2019-04-07T08:51:03.621Z,55.90
2019-04-07T08:53:32.934Z,54.40
2019-04-07T08:56:01.823Z,54.30
2019-04-07T08:58:36.157Z,54.10
2019-04-07T09:01:02.085Z,54.30
2019-04-07T09:03:33.071Z,54.60
2019-04-07T09:06:03.026Z,54.00
2019-04-07T09:08:34.705Z,53.60
2019-04-07T09:11:20.004Z,54.40
2019-04-07T09:13:54.899Z,54.20
2019-04-07T09:16:33.551Z,55.00
2019-04-07T09:19:07.417Z,53.90
2019-04-07T09:21:41.234Z,51.90
2019-04-07T09:24:13.069Z,50.10
2019-04-07T09:26:50.046Z,49.00
2019-04-07T09:29:31.363Z,47.70
2019-04-07T09:32:19.795Z,46.60
2019-04-07T09:35:07.738Z,45.80
2019-04-07T09:37:43.471Z,44.30
2019-04-07T09:40:17.603Z,42.60
2019-04-07T09:43:04.126Z,42.00
2019-04-07T09:45:52.895Z,41.00
2019-04-07T09:48:30.152Z,39.90
2019-04-07T09:51:17.644Z,37.00
2019-04-07T09:53:50.217Z,35.10
2019-04-07T09:56:20.357Z,33.90
2019-04-07T09:58:54.602Z,35.00
2019-04-07T10:01:30.832Z,33.50
2019-04-07T10:04:13.523Z,32.80
2019-04-07T10:06:44.182Z,32.60
2019-04-07T10:09:14.814Z,30.70
2019-04-07T10:11:49.466Z,29.30
2019-04-07T10:14:27.757Z,27.50
2019-04-07T10:16:58.260Z,26.90
2019-04-07T10:19:35.171Z,26.50
2019-04-07T10:22:21.860Z,25.60
2019-04-07T10:24:53.597Z,24.80
2019-04-07T10:27:34.623Z,24.30
2019-04-07T10:30:05.735Z,24.20
2019-04-07T10:32:53.491Z,25.40
2019-04-07T10:35:30.695Z,24.80
2019-04-07T10:38:01.980Z,24.30
2019-04-07T10:40:51.306Z,24.10
2019-04-07T10:43:25.059Z,23.60
2019-04-07T10:46:02.273Z,22.30
2019-04-07T10:48:33.266Z,21.90
2019-04-07T10:51:10.530Z,21.30
2019-04-07T10:53:47.365Z,21.70
2019-04-07T10:56:30.874Z,21.20
2019-04-07T10:59:17.509Z,21.10
2019-04-07T11:02:04.415Z,21.00
2019-04-07T11:04:50.878Z,21.10
2019-04-07T11:07:30.328Z,19.20
2019-04-07T11:10:01.243Z,18.80
2019-04-07T11:12:48.343Z,18.50
2019-04-07T11:15:28.059Z,18.40
2019-04-07T11:18:14.871Z,19.90
2019-04-07T11:20:45.573Z,20.00
2019-04-07T11:23:28.513Z,19.30
2019-04-07T11:25:59.419Z,19.00
2019-04-07T11:28:32.655Z,18.90
2019-04-07T11:31:03.866Z,17.80
2019-04-07T11:33:37.246Z,18.10
2019-04-07T11:36:24.466Z,17.90
2019-04-07T11:39:11.935Z,17.70
2019-04-07T11:41:48.295Z,17.60
2019-04-07T11:44:21.775Z,16.80
2019-04-07T11:46:53.306Z,16.20
2019-04-07T11:49:41.493Z,15.70
2019-04-07T11:52:23.615Z,15.90
2019-04-07T11:55:06.312Z,15.80
2019-04-07T11:58:06.561Z,15.10
2019-04-07T12:00:30.026Z,15.40
2019-04-07T12:03:12.818Z,15.90
2019-04-07T12:05:46.113Z,16.50
2019-04-07T12:08:24.582Z,17.00
2019-04-07T12:11:13.301Z,19.70
2019-04-07T12:13:48.141Z,20.20
2019-04-07T12:16:18.742Z,21.60
2019-04-07T12:18:53.387Z,22.70
2019-04-07T12:21:25.576Z,21.60
2019-04-07T12:24:06.034Z,19.60
2019-04-07T12:26:54.938Z,19.20
2019-04-07T12:29:25.509Z,19.60
2019-04-07T12:31:59.666Z,20.00
2019-04-07T12:34:47.728Z,18.20
2019-04-07T12:37:18.776Z,17.40
2019-04-07T12:39:52.262Z,17.60
2019-04-07T12:42:31.589Z,18.60
2019-04-07T12:45:11.197Z,17.50
2019-04-07T12:47:47.829Z,16.50
2019-04-07T12:50:35.476Z,14.80
2019-04-07T12:53:22.810Z,14.40
2019-04-07T12:56:03.233Z,15.30
2019-04-07T12:58:33.742Z,14.90
2019-04-07T13:01:14.044Z,15.70
2019-04-07T13:03:42.504Z,17.00
2019-04-07T13:06:29.833Z,18.30
2019-04-07T13:09:00.738Z,19.50
2019-04-07T13:11:42.961Z,19.90
2019-04-07T13:14:10.052Z,21.00
2019-04-07T13:16:50.217Z,20.20
2019-04-07T13:19:36.272Z,18.50
2019-04-07T13:22:10.239Z,16.40
2019-04-07T13:24:58.136Z,14.90
2019-04-07T13:30:31.430Z,15.10
2019-04-07T13:33:03.222Z,14.40
2019-04-07T13:35:40.066Z,14.90
2019-04-07T13:38:13.463Z,14.30
2019-04-07T13:40:50.048Z,14.70
2019-04-07T13:43:23.354Z,16.80
2019-04-07T13:45:56.904Z,19.20
2019-04-07T13:48:27.473Z,20.20
2019-04-07T13:50:57.984Z,21.20
2019-04-07T13:53:39.963Z,22.80
2019-04-07T13:56:27.015Z,25.60
2019-04-07T13:59:13.696Z,27.10
2019-04-07T14:01:45.120Z,30.00
2019-04-07T14:04:27.980Z,33.50
2019-04-07T14:07:17.618Z,35.10
2019-04-07T14:10:05.331Z,32.10
2019-04-07T14:12:43.038Z,33.80
2019-04-07T14:15:16.941Z,34.00
2019-04-07T14:18:00.108Z,34.20
2019-04-07T14:20:33.100Z,34.30
2019-04-07T14:23:13.880Z,35.50
2019-04-07T14:25:48.250Z,35.90
2019-04-07T14:28:22.199Z,35.00
2019-04-07T14:31:01.713Z,33.30
2019-04-07T14:33:49.168Z,33.50
2019-04-07T14:36:22.663Z,34.40
2019-04-07T14:38:55.894Z,33.20
2019-04-07T14:41:42.329Z,33.50
2019-04-07T14:44:16.060Z,32.60
2019-04-07T14:47:03.267Z,30.90
2019-04-07T14:49:39.749Z,29.40
2019-04-07T14:52:23.096Z,28.50
2019-04-07T14:54:56.946Z,28.00
2019-04-07T14:57:29.128Z,28.20
2019-04-07T15:00:03.370Z,26.40
2019-04-07T15:02:33.468Z,25.00
2019-04-07T15:05:24.074Z,23.70
2019-04-07T15:08:00.047Z,22.70
2019-04-07T15:10:34.052Z,21.70
2019-04-07T15:13:05.322Z,20.90
2019-04-07T15:15:34.399Z,20.50
2019-04-07T15:18:03.754Z,21.90
2019-04-07T15:20:32.689Z,22.60
2019-04-07T15:23:01.923Z,22.70
2019-04-07T15:25:31.976Z,23.30
2019-04-07T15:28:01.284Z,24.20
2019-04-07T15:30:31.111Z,23.80
2019-04-07T15:33:02.442Z,24.50
2019-04-07T15:35:30.998Z,26.60
2019-04-07T15:37:59.812Z,28.00
2019-04-07T15:40:30.822Z,27.80
2019-04-07T15:43:03.886Z,27.30
2019-04-07T15:45:30.079Z,29.70
2019-04-07T15:48:00.703Z,30.10
2019-04-07T15:50:30.461Z,29.60
2019-04-07T15:53:00.126Z,28.10
2019-04-07T15:55:43.972Z,27.30
2019-04-07T15:57:59.720Z,26.30
2019-04-07T16:00:32.318Z,25.60
2019-04-07T16:03:00.115Z,25.90
2019-04-07T16:05:30.017Z,24.80
2019-04-07T16:08:18.477Z,23.80
2019-04-07T16:10:47.760Z,23.20
2019-04-07T16:13:17.365Z,22.30
2019-04-07T16:15:50.644Z,22.30
2019-04-07T16:18:16.953Z,22.40
2019-04-07T16:20:45.796Z,22.30
2019-04-07T16:23:16.843Z,21.90
2019-04-07T16:25:46.335Z,21.70
2019-04-07T16:28:16.233Z,22.50
2019-04-07T16:30:48.534Z,25.50
2019-04-07T16:33:16.338Z,26.10
2019-04-07T16:35:50.996Z,26.80
2019-04-07T16:38:16.350Z,28.20
2019-04-07T16:40:45.242Z,30.80
2019-04-07T16:43:16.460Z,32.90
2019-04-07T16:45:45.907Z,33.90
2019-04-07T16:48:16.070Z,34.70
2019-04-07T16:50:46.271Z,35.00
2019-04-07T16:53:18.414Z,35.90
2019-04-07T16:55:50.558Z,36.70
2019-04-07T16:58:18.305Z,39.00
2019-04-07T17:00:47.658Z,39.90
2019-04-07T17:03:17.306Z,39.50
2019-04-07T17:05:46.406Z,40.60
2019-04-07T17:08:18.976Z,41.50
2019-04-07T17:10:46.597Z,42.50
2019-04-07T17:13:20.646Z,43.90
2019-04-07T17:15:46.044Z,44.80
2019-04-07T17:18:33.393Z,46.10
2019-04-07T17:21:02.474Z,48.40
2019-04-07T17:23:32.308Z,49.20
2019-04-07T17:26:03.236Z,49.70
2019-04-07T17:28:32.491Z,51.60
2019-04-07T17:31:01.818Z,52.80
2019-04-07T17:33:36.830Z,55.90
2019-04-07T17:36:07.893Z,57.90
2019-04-07T17:38:41.710Z,57.90
2019-04-07T17:41:15.005Z,58.60
2019-04-07T17:43:52.818Z,58.80
2019-04-07T17:46:26.149Z,61.10
2019-04-07T17:48:58.526Z,63.90
2019-04-07T17:51:37.710Z,65.50
2019-04-07T17:54:20.895Z,66.80
2019-04-07T17:56:48.493Z,67.80
2019-04-07T17:59:28.233Z,69.10
2019-04-07T18:02:02.818Z,69.60
2019-04-07T18:04:43.796Z,70.40
2019-04-07T18:07:25.472Z,71.30
2019-04-07T18:09:59.530Z,71.80
2019-04-07T18:12:49.565Z,72.10
2019-04-07T18:15:27.408Z,72.00
2019-04-07T18:18:11.004Z,72.40
2019-04-07T18:20:54.596Z,73.60
2019-04-07T18:23:25.025Z,74.50
2019-04-07T18:26:21.623Z,75.60
2019-04-07T18:29:14.730Z,76.50
2019-04-07T18:32:12.104Z,78.00
2019-04-07T18:35:02.444Z,78.90
2019-04-07T18:37:52.788Z,79.60
2019-04-07T18:40:30.736Z,80.80
2019-04-07T18:43:02.170Z,80.90
2019-04-07T18:45:38.369Z,81.90
2019-04-07T18:48:26.503Z,82.30
2019-04-07T18:54:12.089Z,82.60
2019-04-07T18:57:30.634Z,83.20
2019-04-07T19:00:41.270Z,84.10
2019-04-07T19:03:16.389Z,84.80
2019-04-07T19:05:49.466Z,85.20
2019-04-07T19:08:37.677Z,85.80
2019-04-07T19:11:28.248Z,86.30
2019-04-07T19:14:20.457Z,86.80
2019-04-07T19:17:06.521Z,87.40
2019-04-07T19:20:07.312Z,87.90
2019-04-07T19:22:51.346Z,88.40
2019-04-07T19:25:29.141Z,88.30
2019-04-07T19:28:03.430Z,88.20
2019-04-07T19:30:57.208Z,88.20
2019-04-07T19:33:26.228Z,88.50
2019-04-07T19:36:20.524Z,89.00
2019-04-07T19:39:05.071Z,88.80
2019-04-07T19:42:07.898Z,89.10
2019-04-07T19:44:57.341Z,89.00
2019-04-07T19:48:11.503Z,88.70
2019-04-07T19:50:45.510Z,88.40
2019-04-07T19:53:45.566Z,88.60
2019-04-07T19:56:57.583Z,89.00
2019-04-07T19:59:55.527Z,88.80
2019-04-07T20:02:39.047Z,88.90
2019-04-07T20:05:19.710Z,89.70
2019-04-07T20:08:39.456Z,88.80
2019-04-07T20:11:43.717Z,88.20
2019-04-07T20:15:08.892Z,87.90
2019-04-07T20:18:00.708Z,88.60
2019-04-07T20:20:57.224Z,88.90
2019-04-07T20:23:54.385Z,89.50
2019-04-07T20:26:34.805Z,89.30
2019-04-07T20:29:12.035Z,89.50
2019-04-07T20:32:24.727Z,89.70
2019-04-07T20:35:14.607Z,89.90
2019-04-07T20:38:17.992Z,90.00
2019-04-07T20:41:09.997Z,90.00
2019-04-07T20:44:19.583Z,90.00
2019-04-07T20:47:52.242Z,89.40
2019-04-07T20:51:17.413Z,89.50
2019-04-07T20:53:50.329Z,90.00
2019-04-07T20:56:44.329Z,90.00
2019-04-07T20:59:46.965Z,90.20
2019-04-07T21:02:45.389Z,90.50
2019-04-07T21:05:44.310Z,90.70
2019-04-07T21:08:30.190Z,90.60
2019-04-07T21:11:31.359Z,90.50
2019-04-07T21:14:22.841Z,90.70
2019-04-07T21:17:33.976Z,90.80
2019-04-07T21:20:51.131Z,91.00
2019-04-07T21:23:55.256Z,91.30
2019-04-07T21:26:59.024Z,91.10
2019-04-07T21:29:43.381Z,91.20
2019-04-07T21:32:49.496Z,91.20
2019-04-07T21:35:38.324Z,91.20
2019-04-07T21:38:37.839Z,91.40
2019-04-07T21:41:27.187Z,91.60
2019-04-07T21:43:59.763Z,91.70
2019-04-07T21:46:46.780Z,91.60
2019-04-07T21:49:21.046Z,91.50
2019-04-07T21:52:28.097Z,91.70
2019-04-07T21:55:46.183Z,91.70
2019-04-07T21:58:31.928Z,91.80
2019-04-07T22:01:08.048Z,91.90
2019-04-07T22:03:49.680Z,91.70
2019-04-07T22:06:40.162Z,91.90
2019-04-07T22:09:18.143Z,91.60
2019-04-07T22:11:47.563Z,91.70
2019-04-07T22:14:55.165Z,91.60
2019-04-07T22:18:07.520Z,91.50
2019-04-07T22:20:37.271Z,91.10
2019-04-07T22:23:32.479Z,90.90
2019-04-07T22:25:57.095Z,90.50
2019-04-07T22:28:49.126Z,90.10
2019-04-07T22:31:29.013Z,90.30
2019-04-07T22:34:14.849Z,90.30
2019-04-07T22:37:12.166Z,90.30
2019-04-07T22:39:42.161Z,90.20
2019-04-07T22:42:45.500Z,90.30
2019-04-07T22:45:14.912Z,90.50
2019-04-07T22:47:45.465Z,90.50
2019-04-07T22:50:15.054Z,90.40
2019-04-07T22:53:09.439Z,90.30
2019-04-07T22:56:04.811Z,90.20
2019-04-07T22:58:30.679Z,90.30
2019-04-07T23:01:00.612Z,90.30
2019-04-07T23:04:05.566Z,90.30
2019-04-07T23:06:52.296Z,90.60
2019-04-07T23:09:17.681Z,91.00
2019-04-07T23:11:46.515Z,91.20
2019-04-07T23:14:21.141Z,91.20
2019-04-07T23:16:49.999Z,91.10
2019-04-07T23:19:18.948Z,91.10
2019-04-07T23:25:23.726Z,91.10
2019-04-07T23:28:10.294Z,91.40
2019-04-07T23:31:07.705Z,91.60
2019-04-07T23:36:45.693Z,91.80
2019-04-07T23:39:27.876Z,91.70
2019-04-07T23:41:57.481Z,91.60
2019-04-07T23:44:26.485Z,91.60
2019-04-07T23:46:55.687Z,91.70
2019-04-07T23:49:24.540Z,92.20
2019-04-07T23:51:53.774Z,92.40
2019-04-07T23:54:26.867Z,92.20
2019-04-07T23:56:56.099Z,92.00
2019-04-07T23:59:25.050Z,92.00
